sensor_id;sensor_type;location;lat;lon;timestamp;P1;durP1;ratioP1;P2;durP2;ratioP2
6374;SDS011;35400;45.472;-122.822;2023-02-18T00:01:31;5.83;;;3.23;;
6374;SDS011;35400;45.472;-122.822;2023-02-18T00:03:58;4.13;;;3.20;;
6374;SDS011;35400;45.472;-122.822;2023-02-18T00:06:27;5.67;;;3.67;;
6374;SDS011;35400;45.472;-122.822;2023-02-18T00:08:56;5.33;;;3.90;;
6374;SDS011;35400;45.472;-122.822;2023-02-18T00:11:27;5.77;;;4.50;;
6374;SDS011;35400;45.472;-122.822;2023-02-18T00:13:57;5.30;;;3.50;;
6374;SDS011;35400;45.472;-122.822;2023-02-18T00:16:26;5.47;;;3.70;;
6374;SDS011;35400;45.472;-122.822;2023-02-18T00:18:57;5.43;;;3.70;;
6374;SDS011;35400;45.472;-122.822;2023-02-18T00:21:29;4.90;;;3.40;;
6374;SDS011;35400;45.472;-122.822;2023-02-18T00:23:57;5.43;;;3.67;;
6374;SDS011;35400;45.472;-122.822;2023-02-18T00:26:24;6.50;;;5.83;;
6374;SDS011;35400;45.472;-122.822;2023-02-18T00:28:51;7.83;;;5.10;;
6374;SDS011;35400;45.472;-122.822;2023-02-18T00:31:20;10.63;;;4.20;;
6374;SDS011;35400;45.472;-122.822;2023-02-18T00:33:49;5.00;;;3.87;;
6374;SDS011;35400;45.472;-122.822;2023-02-18T00:36:17;5.33;;;3.30;;
6374;SDS011;35400;45.472;-122.822;2023-02-18T00:38:46;4.73;;;2.93;;
6374;SDS011;35400;45.472;-122.822;2023-02-18T00:41:16;7.47;;;3.20;;
6374;SDS011;35400;45.472;-122.822;2023-02-18T00:43:45;3.63;;;2.70;;
6374;SDS011;35400;45.472;-122.822;2023-02-18T00:46:12;6.17;;;3.97;;
6374;SDS011;35400;45.472;-122.822;2023-02-18T00:48:39;7.57;;;4.30;;
6374;SDS011;35400;45.472;-122.822;2023-02-18T00:51:08;5.20;;;4.33;;
6374;SDS011;35400;45.472;-122.822;2023-02-18T00:53:35;5.67;;;3.70;;
6374;SDS011;35400;45.472;-122.822;2023-02-18T00:56:04;6.00;;;3.50;;
6374;SDS011;35400;45.472;-122.822;2023-02-18T00:58:32;5.20;;;3.93;;
6374;SDS011;35400;45.472;-122.822;2023-02-18T01:00:59;4.50;;;3.20;;
6374;SDS011;35400;45.472;-122.822;2023-02-18T01:03:26;7.43;;;4.53;;
6374;SDS011;35400;45.472;-122.822;2023-02-18T01:05:53;8.27;;;4.50;;
6374;SDS011;35400;45.472;-122.822;2023-02-18T01:08:20;7.40;;;4.10;;
6374;SDS011;35400;45.472;-122.822;2023-02-18T01:10:51;5.50;;;3.80;;
6374;SDS011;35400;45.472;-122.822;2023-02-18T01:13:20;5.50;;;3.63;;
6374;SDS011;35400;45.472;-122.822;2023-02-18T01:15:48;8.00;;;3.97;;
6374;SDS011;35400;45.472;-122.822;2023-02-18T01:18:15;5.70;;;4.20;;
6374;SDS011;35400;45.472;-122.822;2023-02-18T01:20:42;6.17;;;4.20;;
6374;SDS011;35400;45.472;-122.822;2023-02-18T01:23:09;5.37;;;4.47;;
6374;SDS011;35400;45.472;-122.822;2023-02-18T01:25:37;6.67;;;4.53;;
6374;SDS011;35400;45.472;-122.822;2023-02-18T01:28:07;5.53;;;4.10;;
6374;SDS011;35400;45.472;-122.822;2023-02-18T01:30:35;7.57;;;4.90;;
6374;SDS011;35400;45.472;-122.822;2023-02-18T01:33:03;4.93;;;4.30;;
6374;SDS011;35400;45.472;-122.822;2023-02-18T01:35:30;5.53;;;4.70;;
6374;SDS011;35400;45.472;-122.822;2023-02-18T01:37:57;9.20;;;4.43;;
6374;SDS011;35400;45.472;-122.822;2023-02-18T01:40:26;6.63;;;5.07;;
6374;SDS011;35400;45.472;-122.822;2023-02-18T01:42:54;7.53;;;5.87;;
6374;SDS011;35400;45.472;-122.822;2023-02-18T01:48:04;5.87;;;4.43;;
6374;SDS011;35400;45.472;-122.822;2023-02-18T01:50:39;7.93;;;4.47;;
6374;SDS011;35400;45.472;-122.822;2023-02-18T01:53:09;5.73;;;4.47;;
6374;SDS011;35400;45.472;-122.822;2023-02-18T01:55:40;6.83;;;4.53;;
6374;SDS011;35400;45.472;-122.822;2023-02-18T01:58:06;6.33;;;4.40;;
6374;SDS011;35400;45.472;-122.822;2023-02-18T02:00:34;7.10;;;4.33;;
6374;SDS011;35400;45.472;-122.822;2023-02-18T02:03:01;7.50;;;4.33;;
6374;SDS011;35400;45.472;-122.822;2023-02-18T02:05:31;5.83;;;4.50;;
6374;SDS011;35400;45.472;-122.822;2023-02-18T02:08:00;6.03;;;4.30;;
6374;SDS011;35400;45.472;-122.822;2023-02-18T02:10:33;6.77;;;4.43;;
6374;SDS011;35400;45.472;-122.822;2023-02-18T02:13:29;7.83;;;4.33;;
6374;SDS011;35400;45.472;-122.822;2023-02-18T02:35:36;6.87;;;4.80;;
6374;SDS011;35400;45.472;-122.822;2023-02-18T02:41:23;8.47;;;5.03;;
6374;SDS011;35400;45.472;-122.822;2023-02-18T02:46:45;5.43;;;4.23;;
6374;SDS011;35400;45.472;-122.822;2023-02-18T02:52:09;6.07;;;4.50;;
6374;SDS011;35400;45.472;-122.822;2023-02-18T02:54:42;6.30;;;4.77;;
6374;SDS011;35400;45.472;-122.822;2023-02-18T02:59:51;7.77;;;4.87;;
6374;SDS011;35400;45.472;-122.822;2023-02-18T03:11:03;7.10;;;4.90;;
6374;SDS011;35400;45.472;-122.822;2023-02-18T03:19:07;7.63;;;4.90;;
6374;SDS011;35400;45.472;-122.822;2023-02-18T03:21:47;10.70;;;5.60;;
6374;SDS011;35400;45.472;-122.822;2023-02-18T03:27:07;7.87;;;6.50;;
6374;SDS011;35400;45.472;-122.822;2023-02-18T03:29:48;9.67;;;7.80;;
6374;SDS011;35400;45.472;-122.822;2023-02-18T03:32:26;10.00;;;6.37;;
6374;SDS011;35400;45.472;-122.822;2023-02-18T03:34:56;9.13;;;7.00;;
6374;SDS011;35400;45.472;-122.822;2023-02-18T03:37:31;10.17;;;6.50;;
6374;SDS011;35400;45.472;-122.822;2023-02-18T03:40:03;7.93;;;6.17;;
6374;SDS011;35400;45.472;-122.822;2023-02-18T03:42:32;10.17;;;6.00;;
6374;SDS011;35400;45.472;-122.822;2023-02-18T03:44:59;9.67;;;6.80;;
6374;SDS011;35400;45.472;-122.822;2023-02-18T03:47:26;8.17;;;5.37;;
6374;SDS011;35400;45.472;-122.822;2023-02-18T03:49:53;8.00;;;6.47;;
6374;SDS011;35400;45.472;-122.822;2023-02-18T03:52:20;9.43;;;6.67;;
6374;SDS011;35400;45.472;-122.822;2023-02-18T03:54:48;14.13;;;7.07;;
6374;SDS011;35400;45.472;-122.822;2023-02-18T03:57:15;7.93;;;6.40;;
6374;SDS011;35400;45.472;-122.822;2023-02-18T03:59:42;8.93;;;6.20;;
6374;SDS011;35400;45.472;-122.822;2023-02-18T04:02:09;10.13;;;6.50;;
6374;SDS011;35400;45.472;-122.822;2023-02-18T04:04:36;7.53;;;5.97;;
6374;SDS011;35400;45.472;-122.822;2023-02-18T04:07:03;9.43;;;5.93;;
6374;SDS011;35400;45.472;-122.822;2023-02-18T04:09:30;8.23;;;5.73;;
6374;SDS011;35400;45.472;-122.822;2023-02-18T04:11:57;6.83;;;5.50;;
6374;SDS011;35400;45.472;-122.822;2023-02-18T04:14:24;8.47;;;6.10;;
6374;SDS011;35400;45.472;-122.822;2023-02-18T04:16:50;7.77;;;5.67;;
6374;SDS011;35400;45.472;-122.822;2023-02-18T04:19:17;8.37;;;6.40;;
6374;SDS011;35400;45.472;-122.822;2023-02-18T04:21:44;7.93;;;6.07;;
6374;SDS011;35400;45.472;-122.822;2023-02-18T04:24:11;9.40;;;5.80;;
6374;SDS011;35400;45.472;-122.822;2023-02-18T04:26:38;9.60;;;5.50;;
6374;SDS011;35400;45.472;-122.822;2023-02-18T04:29:05;8.53;;;5.43;;
6374;SDS011;35400;45.472;-122.822;2023-02-18T04:31:31;6.47;;;5.50;;
6374;SDS011;35400;45.472;-122.822;2023-02-18T04:33:58;6.57;;;5.43;;
6374;SDS011;35400;45.472;-122.822;2023-02-18T04:36:25;7.20;;;5.43;;
6374;SDS011;35400;45.472;-122.822;2023-02-18T04:38:52;7.87;;;6.10;;
6374;SDS011;35400;45.472;-122.822;2023-02-18T04:41:19;7.47;;;6.07;;
6374;SDS011;35400;45.472;-122.822;2023-02-18T04:43:46;10.37;;;7.97;;
6374;SDS011;35400;45.472;-122.822;2023-02-18T04:46:13;17.77;;;11.23;;
6374;SDS011;35400;45.472;-122.822;2023-02-18T04:48:40;10.47;;;7.20;;
6374;SDS011;35400;45.472;-122.822;2023-02-18T04:51:06;9.83;;;6.63;;
6374;SDS011;35400;45.472;-122.822;2023-02-18T04:53:33;9.83;;;6.77;;
6374;SDS011;35400;45.472;-122.822;2023-02-18T04:56:00;8.77;;;6.37;;
6374;SDS011;35400;45.472;-122.822;2023-02-18T04:58:27;9.93;;;6.57;;
6374;SDS011;35400;45.472;-122.822;2023-02-18T05:00:57;10.30;;;7.17;;
6374;SDS011;35400;45.472;-122.822;2023-02-18T05:03:25;8.87;;;6.27;;
6374;SDS011;35400;45.472;-122.822;2023-02-18T05:05:53;10.23;;;6.03;;
6374;SDS011;35400;45.472;-122.822;2023-02-18T05:08:20;9.07;;;5.90;;
6374;SDS011;35400;45.472;-122.822;2023-02-18T05:10:47;6.93;;;5.70;;
6374;SDS011;35400;45.472;-122.822;2023-02-18T05:13:14;12.20;;;6.40;;
6374;SDS011;35400;45.472;-122.822;2023-02-18T05:15:41;8.70;;;6.00;;
6374;SDS011;35400;45.472;-122.822;2023-02-18T05:18:08;7.57;;;6.27;;
6374;SDS011;35400;45.472;-122.822;2023-02-18T05:20:35;11.03;;;6.67;;
6374;SDS011;35400;45.472;-122.822;2023-02-18T05:23:02;9.30;;;6.40;;
6374;SDS011;35400;45.472;-122.822;2023-02-18T05:25:28;10.23;;;7.77;;
6374;SDS011;35400;45.472;-122.822;2023-02-18T05:27:55;11.37;;;7.73;;
6374;SDS011;35400;45.472;-122.822;2023-02-18T05:30:22;9.00;;;7.20;;
6374;SDS011;35400;45.472;-122.822;2023-02-18T05:32:49;10.87;;;7.57;;
6374;SDS011;35400;45.472;-122.822;2023-02-18T05:35:16;7.57;;;5.83;;
6374;SDS011;35400;45.472;-122.822;2023-02-18T05:37:43;8.77;;;7.07;;
6374;SDS011;35400;45.472;-122.822;2023-02-18T05:40:10;8.13;;;6.43;;
6374;SDS011;35400;45.472;-122.822;2023-02-18T05:42:37;11.03;;;9.00;;
6374;SDS011;35400;45.472;-122.822;2023-02-18T05:45:04;9.57;;;8.20;;
6374;SDS011;35400;45.472;-122.822;2023-02-18T05:47:31;10.10;;;7.23;;
6374;SDS011;35400;45.472;-122.822;2023-02-18T05:49:58;8.33;;;7.23;;
6374;SDS011;35400;45.472;-122.822;2023-02-18T05:52:25;10.70;;;6.43;;
6374;SDS011;35400;45.472;-122.822;2023-02-18T05:54:52;5.97;;;5.07;;
6374;SDS011;35400;45.472;-122.822;2023-02-18T05:57:19;5.90;;;4.60;;
6374;SDS011;35400;45.472;-122.822;2023-02-18T05:59:45;5.10;;;4.23;;
6374;SDS011;35400;45.472;-122.822;2023-02-18T06:02:13;5.70;;;4.53;;
6374;SDS011;35400;45.472;-122.822;2023-02-18T06:04:40;5.87;;;4.60;;
6374;SDS011;35400;45.472;-122.822;2023-02-18T06:07:07;5.23;;;4.03;;
6374;SDS011;35400;45.472;-122.822;2023-02-18T06:09:34;7.70;;;6.10;;
6374;SDS011;35400;45.472;-122.822;2023-02-18T06:12:01;9.33;;;7.43;;
6374;SDS011;35400;45.472;-122.822;2023-02-18T06:14:27;12.63;;;8.83;;
6374;SDS011;35400;45.472;-122.822;2023-02-18T06:16:54;7.90;;;6.07;;
6374;SDS011;35400;45.472;-122.822;2023-02-18T06:19:21;10.13;;;7.67;;
6374;SDS011;35400;45.472;-122.822;2023-02-18T06:21:48;6.97;;;5.50;;
6374;SDS011;35400;45.472;-122.822;2023-02-18T06:24:15;7.57;;;5.77;;
6374;SDS011;35400;45.472;-122.822;2023-02-18T06:26:41;10.60;;;6.30;;
6374;SDS011;35400;45.472;-122.822;2023-02-18T06:29:08;8.70;;;6.53;;
6374;SDS011;35400;45.472;-122.822;2023-02-18T06:31:35;6.83;;;5.40;;
6374;SDS011;35400;45.472;-122.822;2023-02-18T06:34:02;8.03;;;5.10;;
6374;SDS011;35400;45.472;-122.822;2023-02-18T06:36:28;8.57;;;6.27;;
6374;SDS011;35400;45.472;-122.822;2023-02-18T06:38:55;9.07;;;6.57;;
6374;SDS011;35400;45.472;-122.822;2023-02-18T06:41:24;8.67;;;5.87;;
6374;SDS011;35400;45.472;-122.822;2023-02-18T06:43:50;12.20;;;8.47;;
6374;SDS011;35400;45.472;-122.822;2023-02-18T06:46:17;18.37;;;13.13;;
6374;SDS011;35400;45.472;-122.822;2023-02-18T06:48:44;18.30;;;11.27;;
6374;SDS011;35400;45.472;-122.822;2023-02-18T06:51:11;15.40;;;8.87;;
6374;SDS011;35400;45.472;-122.822;2023-02-18T06:53:38;10.73;;;7.27;;
6374;SDS011;35400;45.472;-122.822;2023-02-18T06:56:05;9.47;;;7.33;;
6374;SDS011;35400;45.472;-122.822;2023-02-18T06:58:32;7.90;;;6.47;;
6374;SDS011;35400;45.472;-122.822;2023-02-18T07:00:59;8.87;;;6.60;;
6374;SDS011;35400;45.472;-122.822;2023-02-18T07:03:26;6.97;;;5.50;;
6374;SDS011;35400;45.472;-122.822;2023-02-18T07:05:53;7.47;;;5.93;;
6374;SDS011;35400;45.472;-122.822;2023-02-18T07:08:20;6.27;;;4.87;;
6374;SDS011;35400;45.472;-122.822;2023-02-18T07:10:47;6.27;;;4.50;;
6374;SDS011;35400;45.472;-122.822;2023-02-18T07:13:14;6.20;;;5.20;;
6374;SDS011;35400;45.472;-122.822;2023-02-18T07:15:41;6.00;;;5.03;;
6374;SDS011;35400;45.472;-122.822;2023-02-18T07:18:08;5.93;;;4.43;;
6374;SDS011;35400;45.472;-122.822;2023-02-18T07:20:35;5.77;;;5.00;;
6374;SDS011;35400;45.472;-122.822;2023-02-18T07:23:02;5.63;;;4.43;;
6374;SDS011;35400;45.472;-122.822;2023-02-18T07:25:28;7.70;;;5.07;;
6374;SDS011;35400;45.472;-122.822;2023-02-18T07:27:55;4.67;;;4.10;;
6374;SDS011;35400;45.472;-122.822;2023-02-18T07:30:22;5.70;;;4.53;;
6374;SDS011;35400;45.472;-122.822;2023-02-18T07:32:49;5.20;;;4.43;;
6374;SDS011;35400;45.472;-122.822;2023-02-18T07:35:16;5.53;;;4.50;;
6374;SDS011;35400;45.472;-122.822;2023-02-18T07:37:44;4.90;;;3.67;;
6374;SDS011;35400;45.472;-122.822;2023-02-18T07:40:13;5.70;;;4.57;;
6374;SDS011;35400;45.472;-122.822;2023-02-18T07:42:43;5.43;;;4.70;;
6374;SDS011;35400;45.472;-122.822;2023-02-18T07:45:10;5.20;;;4.20;;
6374;SDS011;35400;45.472;-122.822;2023-02-18T07:47:38;5.00;;;4.20;;
6374;SDS011;35400;45.472;-122.822;2023-02-18T07:50:06;7.73;;;5.83;;
6374;SDS011;35400;45.472;-122.822;2023-02-18T07:52:34;6.67;;;5.97;;
6374;SDS011;35400;45.472;-122.822;2023-02-18T07:55:00;6.93;;;5.13;;
6374;SDS011;35400;45.472;-122.822;2023-02-18T07:57:28;6.17;;;4.97;;
6374;SDS011;35400;45.472;-122.822;2023-02-18T07:59:55;6.53;;;4.90;;
6374;SDS011;35400;45.472;-122.822;2023-02-18T08:02:22;6.60;;;4.93;;
6374;SDS011;35400;45.472;-122.822;2023-02-18T08:04:50;8.63;;;7.70;;
6374;SDS011;35400;45.472;-122.822;2023-02-18T08:07:17;9.60;;;8.37;;
6374;SDS011;35400;45.472;-122.822;2023-02-18T08:09:46;8.50;;;7.60;;
6374;SDS011;35400;45.472;-122.822;2023-02-18T08:12:15;7.53;;;4.93;;
6374;SDS011;35400;45.472;-122.822;2023-02-18T08:14:41;5.53;;;3.90;;
6374;SDS011;35400;45.472;-122.822;2023-02-18T08:17:08;6.27;;;4.00;;
6374;SDS011;35400;45.472;-122.822;2023-02-18T08:19:35;5.63;;;4.27;;
6374;SDS011;35400;45.472;-122.822;2023-02-18T08:22:02;5.73;;;4.60;;
6374;SDS011;35400;45.472;-122.822;2023-02-18T08:24:29;6.37;;;4.60;;
6374;SDS011;35400;45.472;-122.822;2023-02-18T08:26:56;7.53;;;4.53;;
6374;SDS011;35400;45.472;-122.822;2023-02-18T08:29:22;7.40;;;5.07;;
6374;SDS011;35400;45.472;-122.822;2023-02-18T08:31:49;5.50;;;5.00;;
6374;SDS011;35400;45.472;-122.822;2023-02-18T08:34:18;6.03;;;4.77;;
6374;SDS011;35400;45.472;-122.822;2023-02-18T08:36:45;7.67;;;4.70;;
6374;SDS011;35400;45.472;-122.822;2023-02-18T08:39:12;8.30;;;5.00;;
6374;SDS011;35400;45.472;-122.822;2023-02-18T08:41:39;7.07;;;5.10;;
6374;SDS011;35400;45.472;-122.822;2023-02-18T08:44:05;6.07;;;4.80;;
6374;SDS011;35400;45.472;-122.822;2023-02-18T08:46:32;5.90;;;5.30;;
6374;SDS011;35400;45.472;-122.822;2023-02-18T08:48:59;5.90;;;5.17;;
6374;SDS011;35400;45.472;-122.822;2023-02-18T08:51:26;6.20;;;5.20;;
6374;SDS011;35400;45.472;-122.822;2023-02-18T08:53:53;6.20;;;5.27;;
6374;SDS011;35400;45.472;-122.822;2023-02-18T08:56:19;6.63;;;5.70;;
6374;SDS011;35400;45.472;-122.822;2023-02-18T08:58:46;7.57;;;6.47;;
6374;SDS011;35400;45.472;-122.822;2023-02-18T09:01:13;9.17;;;7.10;;
6374;SDS011;35400;45.472;-122.822;2023-02-18T09:03:40;7.70;;;6.83;;
6374;SDS011;35400;45.472;-122.822;2023-02-18T09:06:07;7.80;;;6.97;;
6374;SDS011;35400;45.472;-122.822;2023-02-18T09:08:34;9.50;;;8.00;;
6374;SDS011;35400;45.472;-122.822;2023-02-18T09:11:02;7.87;;;6.47;;
6374;SDS011;35400;45.472;-122.822;2023-02-18T09:13:30;7.53;;;5.70;;
6374;SDS011;35400;45.472;-122.822;2023-02-18T09:15:58;7.07;;;5.80;;
6374;SDS011;35400;45.472;-122.822;2023-02-18T09:18:28;9.37;;;6.20;;
6374;SDS011;35400;45.472;-122.822;2023-02-18T09:20:56;10.17;;;6.80;;
6374;SDS011;35400;45.472;-122.822;2023-02-18T09:23:25;8.60;;;6.63;;
6374;SDS011;35400;45.472;-122.822;2023-02-18T09:25:53;7.53;;;6.27;;
6374;SDS011;35400;45.472;-122.822;2023-02-18T09:28:20;8.17;;;6.07;;
6374;SDS011;35400;45.472;-122.822;2023-02-18T09:30:47;8.63;;;6.60;;
6374;SDS011;35400;45.472;-122.822;2023-02-18T09:33:14;7.37;;;5.53;;
6374;SDS011;35400;45.472;-122.822;2023-02-18T09:35:42;7.20;;;5.70;;
6374;SDS011;35400;45.472;-122.822;2023-02-18T09:38:10;7.80;;;5.60;;
6374;SDS011;35400;45.472;-122.822;2023-02-18T09:40:41;6.60;;;5.10;;
6374;SDS011;35400;45.472;-122.822;2023-02-18T09:43:17;7.60;;;5.43;;
6374;SDS011;35400;45.472;-122.822;2023-02-18T09:45:52;8.37;;;6.30;;
6374;SDS011;35400;45.472;-122.822;2023-02-18T09:48:21;6.03;;;5.43;;
6374;SDS011;35400;45.472;-122.822;2023-02-18T09:50:56;8.13;;;5.67;;
6374;SDS011;35400;45.472;-122.822;2023-02-18T09:53:23;6.63;;;5.30;;
6374;SDS011;35400;45.472;-122.822;2023-02-18T09:55:51;5.70;;;5.00;;
6374;SDS011;35400;45.472;-122.822;2023-02-18T09:58:25;7.30;;;5.80;;
6374;SDS011;35400;45.472;-122.822;2023-02-18T10:01:01;6.73;;;5.53;;
6374;SDS011;35400;45.472;-122.822;2023-02-18T10:03:41;6.70;;;6.00;;
6374;SDS011;35400;45.472;-122.822;2023-02-18T10:06:10;8.43;;;6.17;;
6374;SDS011;35400;45.472;-122.822;2023-02-18T10:08:45;7.53;;;6.27;;
6374;SDS011;35400;45.472;-122.822;2023-02-18T10:11:15;8.17;;;6.10;;
6374;SDS011;35400;45.472;-122.822;2023-02-18T10:13:57;9.37;;;6.33;;
6374;SDS011;35400;45.472;-122.822;2023-02-18T10:16:26;6.53;;;5.80;;
6374;SDS011;35400;45.472;-122.822;2023-02-18T10:18:55;6.83;;;5.83;;
6374;SDS011;35400;45.472;-122.822;2023-02-18T10:21:25;8.27;;;5.67;;
6374;SDS011;35400;45.472;-122.822;2023-02-18T10:23:59;8.33;;;5.63;;
6374;SDS011;35400;45.472;-122.822;2023-02-18T10:26:34;8.53;;;5.87;;
6374;SDS011;35400;45.472;-122.822;2023-02-18T10:29:03;9.73;;;6.33;;
6374;SDS011;35400;45.472;-122.822;2023-02-18T10:31:38;8.80;;;6.13;;
6374;SDS011;35400;45.472;-122.822;2023-02-18T10:37:00;6.77;;;6.07;;
6374;SDS011;35400;45.472;-122.822;2023-02-18T10:39:47;8.23;;;6.23;;
6374;SDS011;35400;45.472;-122.822;2023-02-18T10:45:08;6.37;;;5.60;;
6374;SDS011;35400;45.472;-122.822;2023-02-18T10:51:17;14.67;;;6.60;;
6374;SDS011;35400;45.472;-122.822;2023-02-18T10:53:53;8.90;;;6.53;;
6374;SDS011;35400;45.472;-122.822;2023-02-18T10:59:17;9.33;;;6.50;;
6374;SDS011;35400;45.472;-122.822;2023-02-18T11:01:44;6.97;;;5.93;;
6374;SDS011;35400;45.472;-122.822;2023-02-18T11:04:19;6.80;;;5.70;;
6374;SDS011;35400;45.472;-122.822;2023-02-18T11:06:51;10.53;;;5.50;;
6374;SDS011;35400;45.472;-122.822;2023-02-18T11:17:42;7.97;;;6.03;;
6374;SDS011;35400;45.472;-122.822;2023-02-18T11:20:21;7.23;;;5.60;;
6374;SDS011;35400;45.472;-122.822;2023-02-18T11:23:18;6.63;;;5.93;;
6374;SDS011;35400;45.472;-122.822;2023-02-18T11:25:56;6.43;;;5.17;;
6374;SDS011;35400;45.472;-122.822;2023-02-18T11:28:28;8.13;;;5.97;;
6374;SDS011;35400;45.472;-122.822;2023-02-18T11:31:07;7.40;;;5.83;;
6374;SDS011;35400;45.472;-122.822;2023-02-18T11:33:38;8.13;;;6.60;;
6374;SDS011;35400;45.472;-122.822;2023-02-18T11:38:57;6.90;;;5.60;;
6374;SDS011;35400;45.472;-122.822;2023-02-18T11:41:42;9.07;;;6.10;;
6374;SDS011;35400;45.472;-122.822;2023-02-18T11:44:58;6.07;;;5.30;;
6374;SDS011;35400;45.472;-122.822;2023-02-18T11:47:05;8.27;;;6.23;;
6374;SDS011;35400;45.472;-122.822;2023-02-18T11:49:38;8.13;;;5.37;;
6374;SDS011;35400;45.472;-122.822;2023-02-18T11:52:15;7.63;;;6.10;;
6374;SDS011;35400;45.472;-122.822;2023-02-18T11:57:27;7.47;;;6.13;;
6374;SDS011;35400;45.472;-122.822;2023-02-18T11:59:55;8.83;;;6.27;;
6374;SDS011;35400;45.472;-122.822;2023-02-18T12:02:30;8.57;;;5.87;;
6374;SDS011;35400;45.472;-122.822;2023-02-18T12:05:03;8.73;;;6.00;;
6374;SDS011;35400;45.472;-122.822;2023-02-18T12:07:55;9.17;;;6.27;;
6374;SDS011;35400;45.472;-122.822;2023-02-18T12:10:42;7.47;;;5.70;;
6374;SDS011;35400;45.472;-122.822;2023-02-18T12:21:46;7.87;;;6.20;;
6374;SDS011;35400;45.472;-122.822;2023-02-18T12:27:29;7.60;;;5.33;;
6374;SDS011;35400;45.472;-122.822;2023-02-18T12:30:24;5.90;;;5.33;;
6374;SDS011;35400;45.472;-122.822;2023-02-18T12:45:01;7.03;;;5.23;;
6374;SDS011;35400;45.472;-122.822;2023-02-18T12:53:29;6.23;;;4.50;;
6374;SDS011;35400;45.472;-122.822;2023-02-18T13:01:27;6.13;;;5.33;;
6374;SDS011;35400;45.472;-122.822;2023-02-18T13:12:47;8.93;;;5.50;;
6374;SDS011;35400;45.472;-122.822;2023-02-18T13:15:21;5.47;;;4.53;;
6374;SDS011;35400;45.472;-122.822;2023-02-18T13:17:56;6.80;;;5.37;;
6374;SDS011;35400;45.472;-122.822;2023-02-18T13:20:32;6.13;;;5.53;;
6374;SDS011;35400;45.472;-122.822;2023-02-18T13:23:00;7.40;;;5.20;;
6374;SDS011;35400;45.472;-122.822;2023-02-18T13:25:31;8.53;;;6.27;;
6374;SDS011;35400;45.472;-122.822;2023-02-18T13:28:17;6.80;;;5.60;;
6374;SDS011;35400;45.472;-122.822;2023-02-18T13:34:16;5.70;;;5.03;;
6374;SDS011;35400;45.472;-122.822;2023-02-18T13:37:19;6.33;;;4.80;;
6374;SDS011;35400;45.472;-122.822;2023-02-18T13:40:00;9.07;;;5.43;;
6374;SDS011;35400;45.472;-122.822;2023-02-18T13:42:35;6.70;;;5.50;;
6374;SDS011;35400;45.472;-122.822;2023-02-18T13:47:50;7.17;;;5.40;;
6374;SDS011;35400;45.472;-122.822;2023-02-18T13:52:48;6.00;;;5.23;;
6374;SDS011;35400;45.472;-122.822;2023-02-18T13:55:20;7.87;;;5.80;;
6374;SDS011;35400;45.472;-122.822;2023-02-18T13:57:52;5.93;;;5.33;;
6374;SDS011;35400;45.472;-122.822;2023-02-18T14:00:21;6.10;;;4.90;;
6374;SDS011;35400;45.472;-122.822;2023-02-18T14:02:54;6.83;;;5.67;;
6374;SDS011;35400;45.472;-122.822;2023-02-18T14:05:24;5.30;;;4.73;;
6374;SDS011;35400;45.472;-122.822;2023-02-18T14:13:54;7.07;;;5.47;;
6374;SDS011;35400;45.472;-122.822;2023-02-18T14:19:55;6.57;;;5.23;;
6374;SDS011;35400;45.472;-122.822;2023-02-18T14:22:28;7.40;;;5.20;;
6374;SDS011;35400;45.472;-122.822;2023-02-18T14:25:38;8.80;;;5.47;;
6374;SDS011;35400;45.472;-122.822;2023-02-18T14:31:05;7.60;;;4.63;;
6374;SDS011;35400;45.472;-122.822;2023-02-18T14:33:39;5.13;;;3.83;;
6374;SDS011;35400;45.472;-122.822;2023-02-18T14:50:04;5.93;;;4.57;;
6374;SDS011;35400;45.472;-122.822;2023-02-18T14:52:43;6.00;;;4.57;;
6374;SDS011;35400;45.472;-122.822;2023-02-18T14:55:18;7.37;;;4.67;;
6374;SDS011;35400;45.472;-122.822;2023-02-18T14:57:52;8.60;;;4.20;;
6374;SDS011;35400;45.472;-122.822;2023-02-18T15:00:29;6.30;;;4.10;;
6374;SDS011;35400;45.472;-122.822;2023-02-18T15:03:00;5.43;;;3.80;;
6374;SDS011;35400;45.472;-122.822;2023-02-18T15:05:29;5.37;;;4.30;;
6374;SDS011;35400;45.472;-122.822;2023-02-18T15:08:04;4.77;;;3.90;;
6374;SDS011;35400;45.472;-122.822;2023-02-18T15:13:40;6.77;;;4.23;;
6374;SDS011;35400;45.472;-122.822;2023-02-18T15:16:12;7.47;;;5.20;;
6374;SDS011;35400;45.472;-122.822;2023-02-18T15:19:01;6.07;;;5.20;;
6374;SDS011;35400;45.472;-122.822;2023-02-18T15:21:34;5.97;;;4.73;;
6374;SDS011;35400;45.472;-122.822;2023-02-18T15:24:06;6.37;;;4.73;;
6374;SDS011;35400;45.472;-122.822;2023-02-18T15:26:44;8.80;;;5.03;;
6374;SDS011;35400;45.472;-122.822;2023-02-18T15:29:17;7.70;;;5.00;;
6374;SDS011;35400;45.472;-122.822;2023-02-18T15:31:46;6.00;;;4.50;;
6374;SDS011;35400;45.472;-122.822;2023-02-18T15:34:24;4.90;;;4.40;;
6374;SDS011;35400;45.472;-122.822;2023-02-18T15:36:52;6.67;;;4.27;;
6374;SDS011;35400;45.472;-122.822;2023-02-18T15:39:20;6.60;;;4.30;;
6374;SDS011;35400;45.472;-122.822;2023-02-18T15:41:54;8.03;;;4.53;;
6374;SDS011;35400;45.472;-122.822;2023-02-18T15:44:25;5.57;;;4.30;;
6374;SDS011;35400;45.472;-122.822;2023-02-18T15:46:54;9.87;;;5.60;;
6374;SDS011;35400;45.472;-122.822;2023-02-18T15:49:24;9.37;;;6.03;;
6374;SDS011;35400;45.472;-122.822;2023-02-18T15:51:53;9.00;;;6.10;;
6374;SDS011;35400;45.472;-122.822;2023-02-18T15:54:23;9.90;;;6.33;;
6374;SDS011;35400;45.472;-122.822;2023-02-18T15:56:54;10.07;;;7.20;;
6374;SDS011;35400;45.472;-122.822;2023-02-18T15:59:26;8.97;;;6.50;;
6374;SDS011;35400;45.472;-122.822;2023-02-18T16:02:18;10.40;;;8.00;;
6374;SDS011;35400;45.472;-122.822;2023-02-18T16:04:57;11.23;;;7.30;;
6374;SDS011;35400;45.472;-122.822;2023-02-18T16:07:30;12.13;;;8.67;;
6374;SDS011;35400;45.472;-122.822;2023-02-18T16:10:21;11.43;;;7.47;;
6374;SDS011;35400;45.472;-122.822;2023-02-18T16:13:00;12.97;;;7.97;;
6374;SDS011;35400;45.472;-122.822;2023-02-18T16:15:30;11.17;;;8.33;;
6374;SDS011;35400;45.472;-122.822;2023-02-18T16:18:04;11.30;;;8.07;;
6374;SDS011;35400;45.472;-122.822;2023-02-18T16:20:32;12.30;;;9.37;;
6374;SDS011;35400;45.472;-122.822;2023-02-18T16:23:13;11.67;;;8.77;;
6374;SDS011;35400;45.472;-122.822;2023-02-18T16:25:41;11.00;;;8.50;;
6374;SDS011;35400;45.472;-122.822;2023-02-18T16:28:24;13.20;;;9.63;;
6374;SDS011;35400;45.472;-122.822;2023-02-18T16:30:56;12.90;;;10.27;;
6374;SDS011;35400;45.472;-122.822;2023-02-18T16:33:23;11.53;;;9.73;;
6374;SDS011;35400;45.472;-122.822;2023-02-18T16:35:50;13.47;;;9.80;;
6374;SDS011;35400;45.472;-122.822;2023-02-18T16:38:18;13.67;;;10.03;;
6374;SDS011;35400;45.472;-122.822;2023-02-18T16:40:47;13.70;;;10.17;;
6374;SDS011;35400;45.472;-122.822;2023-02-18T16:43:19;12.57;;;10.67;;
6374;SDS011;35400;45.472;-122.822;2023-02-18T16:45:55;13.80;;;10.70;;
6374;SDS011;35400;45.472;-122.822;2023-02-18T16:51:17;13.73;;;10.17;;
6374;SDS011;35400;45.472;-122.822;2023-02-18T16:53:50;13.00;;;10.50;;
6374;SDS011;35400;45.472;-122.822;2023-02-18T16:56:18;13.23;;;10.50;;
6374;SDS011;35400;45.472;-122.822;2023-02-18T16:58:47;13.20;;;10.10;;
6374;SDS011;35400;45.472;-122.822;2023-02-18T17:01:23;15.23;;;11.10;;
6374;SDS011;35400;45.472;-122.822;2023-02-18T17:03:51;12.70;;;9.80;;
6374;SDS011;35400;45.472;-122.822;2023-02-18T17:06:18;15.23;;;11.30;;
6374;SDS011;35400;45.472;-122.822;2023-02-18T17:08:46;16.80;;;11.37;;
6374;SDS011;35400;45.472;-122.822;2023-02-18T17:11:18;15.90;;;11.90;;
6374;SDS011;35400;45.472;-122.822;2023-02-18T17:13:46;13.00;;;10.37;;
6374;SDS011;35400;45.472;-122.822;2023-02-18T17:16:13;13.70;;;11.27;;
6374;SDS011;35400;45.472;-122.822;2023-02-18T17:18:41;13.50;;;11.03;;